Startpagina
METAR-TAF:

METAR-TAF

Vliegvelden :

Aeropuerto de Zaragoza

Zaragoza, Spanje

breedte: 41-40N, lengte: 001-01W, hoogte: 263 m

Actueel weer

Dit bericht is 16 minuten geleden gemaakt, om 17:00 UTC
Wind 15 kt uit het noordnoordwesten
Temperatuur 13°C
Vochtigheid 47%
Druk 1019 hPa
Zicht 10 km of meer
Weinig wolken op 5000 ft

METAR: LEZG 261700Z 33015KT 9999 FEW050 13/02 Q1019

Tijdstip: 18:16 (17:16 UTC)

Verwachting

Dit bericht is 6 uur en het 16 minuten geleden gemaakt, om 11:00 UTC
Verwachting geldig van 26 om 12 UTC tot 27 om 12 UTC
Wind 20 kt uit het noordwesten met uitschieters tot 30 kt
Zicht 10 km of meer
geen wolken onder 1500 m en geen cumulonimbus
Wijzigt naar
van 26 om 17 UTC tot 26 om 19 UTC
Wind 8 kt uit het westzuidwesten
Tijdelijke
van 27 om 03 UTC tot 27 om 10 UTC
Wind 12 kt uit het westen

TAF: LEZG 261100Z 2612/2712 31020G30KT CAVOK TX15/2615Z TN03/2706Z BECMG 2617/2619 25008KT TEMPO 2703/2710 27012KT

Waarnemingen en weersverwachtingen van meer dan 4000 vliegvelden (METAR en TAF).

De beschikbare stations zijn de gele en rode punten op de kaart.

Ga met uw muis naar het station om de naam te zien.

Klik dan om waarnemingen en weersverwachtingen te zien.

kaart wijzigen: klik op de groene knoppen met een zwart kruis om in te zoomen, op de groene knop met een streepje om uit te zoomen of op de groene pijlen voor aangrenzende kaarten.


METAR-TAF: